Time;durP1;ratioP1;P1;durP2;ratioP2;P2;SDS_P1;SDS_P2;PMS_P1;PMS_P2;Temp;Humidity;BMP_temperature;BMP_pressure;BME280_temperature;BME280_humidity;BME280_pressure;Samples;Min_cycle;Max_cycle;Signal;HPM_P1;HPM_P2
2021/10/24 00:01:19;;;;;;;23.38;13.23;;;;;;;;;;4993803;28;20034;-64
2021/10/24 00:03:45;;;;;;;17.20;11.18;;;;;;;;;;4995254;28;20034;-73
2021/10/24 00:06:11;;;;;;;13.82;9.30;;;;;;;;;;4994349;28;20027;-72
2021/10/24 00:08:38;;;;;;;15.68;9.40;;;;;;;;;;4989977;28;20050;-73
2021/10/24 00:11:05;;;;;;;12.95;8.35;;;;;;;;;;4975068;28;20475;-73
2021/10/24 00:13:32;;;;;;;18.77;8.70;;;;;;;;;;4990691;28;20043;-72
2021/10/24 00:15:58;;;;;;;15.30;8.77;;;;;;;;;;4994472;28;20073;-70
2021/10/24 00:18:24;;;;;;;13.85;8.30;;;;;;;;;;4994161;28;20066;-70
2021/10/24 00:20:51;;;;;;;15.63;8.90;;;;;;;;;;4994175;28;20041;-73
2021/10/24 00:23:17;;;;;;;14.75;8.70;;;;;;;;;;4993233;28;20030;-70
2021/10/24 00:25:44;;;;;;;14.30;8.20;;;;;;;;;;4988614;28;20030;-72
2021/10/24 00:28:10;;;;;;;16.63;8.35;;;;;;;;;;4994532;28;20035;-72
2021/10/24 00:30:36;;;;;;;19.63;8.57;;;;;;;;;;4994092;28;20033;-72
2021/10/24 00:33:06;;;;;;;15.27;8.68;;;;;;;;;;4991970;28;20038;-72
2021/10/24 00:35:32;;;;;;;19.05;9.77;;;;;;;;;;4994498;28;20030;-71
2021/10/24 00:37:58;;;;;;;17.10;9.98;;;;;;;;;;4999034;28;20030;-72
2021/10/24 00:40:25;;;;;;;19.77;9.13;;;;;;;;;;4994481;28;20049;-73
2021/10/24 00:42:52;;;;;;;18.23;9.30;;;;;;;;;;4993800;28;20129;-72
2021/10/24 00:45:19;;;;;;;18.20;9.20;;;;;;;;;;4990429;28;20431;-72
2021/10/24 00:47:45;;;;;;;17.65;9.35;;;;;;;;;;4992545;28;20081;-73
2021/10/24 00:50:11;;;;;;;18.88;8.90;;;;;;;;;;4993167;28;20053;-73
2021/10/24 00:52:39;;;;;;;13.00;8.35;;;;;;;;;;4993528;28;20034;-72
2021/10/24 00:55:05;;;;;;;20.08;8.82;;;;;;;;;;4994679;28;20057;-72
2021/10/24 00:57:31;;;;;;;14.07;8.02;;;;;;;;;;4994966;28;20077;-73
2021/10/24 00:59:57;;;;;;;13.93;8.27;;;;;;;;;;4994034;28;20062;-72
2021/10/24 01:02:24;;;;;;;13.18;7.57;;;;;;;;;;4993176;28;20356;-71
2021/10/24 01:04:50;;;;;;;14.32;8.35;;;;;;;;;;4992666;28;20497;-72
2021/10/24 01:07:19;;;;;;;16.42;8.40;;;;;;;;;;4982843;28;20069;-73
2021/10/24 01:09:46;;;;;;;14.23;8.48;;;;;;;;;;4994218;28;20106;-72
2021/10/24 01:12:12;;;;;;;13.98;7.82;;;;;;;;;;4993898;28;20523;-72
2021/10/24 01:14:38;;;;;;;15.57;8.93;;;;;;;;;;4993159;28;20515;-72
2021/10/24 01:17:05;;;;;;;16.55;9.02;;;;;;;;;;4994091;28;20040;-68
2021/10/24 01:19:33;;;;;;;16.85;8.75;;;;;;;;;;4993849;28;20089;-72
2021/10/24 01:21:59;;;;;;;14.88;8.48;;;;;;;;;;4992459;28;20031;-72
2021/10/24 01:24:25;;;;;;;17.63;9.25;;;;;;;;;;4993952;28;20026;-71
2021/10/24 01:26:51;;;;;;;17.00;8.60;;;;;;;;;;4984750;28;20034;-69
2021/10/24 01:29:17;;;;;;;16.83;9.07;;;;;;;;;;4995550;28;20018;-72
2021/10/24 01:31:43;;;;;;;14.23;8.27;;;;;;;;;;4992823;28;20045;-67
2021/10/24 01:34:11;;;;;;;13.05;8.70;;;;;;;;;;4996881;28;20088;-70
2021/10/24 01:36:37;;;;;;;16.95;8.60;;;;;;;;;;4989863;28;20430;-70
2021/10/24 01:39:04;;;;;;;16.42;8.82;;;;;;;;;;4992974;28;20026;-72
2021/10/24 01:41:30;;;;;;;12.88;7.97;;;;;;;;;;4995574;28;20034;-67
2021/10/24 01:43:56;;;;;;;16.95;10.15;;;;;;;;;;4992460;28;20026;-72
2021/10/24 01:46:23;;;;;;;15.13;8.25;;;;;;;;;;4989373;28;20387;-69
2021/10/24 01:48:49;;;;;;;11.50;6.82;;;;;;;;;;4991288;28;20030;-72
2021/10/24 01:51:15;;;;;;;11.45;5.80;;;;;;;;;;4984615;28;20026;-72
2021/10/24 01:53:42;;;;;;;9.68;5.82;;;;;;;;;;4990723;28;20380;-72
2021/10/24 01:56:09;;;;;;;12.98;6.32;;;;;;;;;;4994432;28;20050;-68
2021/10/24 01:58:37;;;;;;;13.27;7.20;;;;;;;;;;4986914;28;20365;-70
2021/10/24 02:01:04;;;;;;;12.00;7.38;;;;;;;;;;4991641;28;20038;-70
2021/10/24 02:03:35;;;;;;;11.27;7.63;;;;;;;;;;4996762;28;20052;-73
2021/10/24 02:06:02;;;;;;;19.52;9.00;;;;;;;;;;4975465;28;20439;-72
2021/10/24 02:08:28;;;;;;;10.95;6.90;;;;;;;;;;4989969;28;20033;-72
2021/10/24 02:10:54;;;;;;;12.68;5.80;;;;;;;;;;4994152;28;20497;-71
2021/10/24 02:13:20;;;;;;;10.88;5.35;;;;;;;;;;4977175;28;20411;-72
2021/10/24 02:15:46;;;;;;;11.98;5.88;;;;;;;;;;4986674;28;20030;-73
2021/10/24 02:18:13;;;;;;;10.05;5.80;;;;;;;;;;4996508;28;20072;-67
2021/10/24 02:20:40;;;;;;;9.50;5.65;;;;;;;;;;4991730;28;20037;-72
2021/10/24 02:23:07;;;;;;;12.50;6.35;;;;;;;;;;4992008;28;20031;-73
2021/10/24 02:25:33;;;;;;;9.55;6.05;;;;;;;;;;4992224;28;20027;-72
2021/10/24 02:28:00;;;;;;;8.65;6.15;;;;;;;;;;4992887;28;20037;-72
2021/10/24 02:30:28;;;;;;;13.07;6.85;;;;;;;;;;4991703;28;20399;-72
2021/10/24 02:32:54;;;;;;;12.65;6.80;;;;;;;;;;4992177;28;20150;-71
2021/10/24 02:35:24;;;;;;;12.73;6.47;;;;;;;;;;4993771;28;20451;-72
2021/10/24 02:37:50;;;;;;;12.60;5.75;;;;;;;;;;4991896;28;20025;-68
2021/10/24 02:40:16;;;;;;;11.32;6.20;;;;;;;;;;4986046;28;20043;-72
2021/10/24 02:42:42;;;;;;;13.43;8.63;;;;;;;;;;4990173;28;20057;-73
2021/10/24 02:45:09;;;;;;;13.90;7.03;;;;;;;;;;4991633;28;20030;-73
2021/10/24 02:47:35;;;;;;;10.73;6.50;;;;;;;;;;4992808;28;20022;-72
2021/10/24 02:50:01;;;;;;;10.95;5.72;;;;;;;;;;4990752;28;20054;-72
2021/10/24 02:52:27;;;;;;;12.60;5.63;;;;;;;;;;4989823;28;20033;-72
2021/10/24 02:54:53;;;;;;;14.38;6.40;;;;;;;;;;4991499;28;20057;-72
2021/10/24 02:57:22;;;;;;;13.10;6.57;;;;;;;;;;4991685;28;20451;-72
2021/10/24 02:59:49;;;;;;;11.95;6.15;;;;;;;;;;4972310;28;20381;-72
2021/10/24 03:02:15;;;;;;;12.43;5.43;;;;;;;;;;4987984;28;20031;-63
2021/10/24 03:04:41;;;;;;;11.18;5.47;;;;;;;;;;4990776;28;20027;-73
2021/10/24 03:07:07;;;;;;;12.02;5.05;;;;;;;;;;4988444;28;20068;-73
2021/10/24 03:09:33;;;;;;;11.18;6.07;;;;;;;;;;4990706;28;20037;-73
2021/10/24 03:11:59;;;;;;;9.93;5.50;;;;;;;;;;4985003;28;20031;-72
2021/10/24 03:14:26;;;;;;;13.98;5.70;;;;;;;;;;4991561;28;20050;-65
2021/10/24 03:16:52;;;;;;;14.23;5.25;;;;;;;;;;4990739;28;20026;-73
2021/10/24 03:19:18;;;;;;;13.05;5.10;;;;;;;;;;4991681;28;20038;-72
2021/10/24 03:21:44;;;;;;;13.15;5.60;;;;;;;;;;4991176;28;20117;-72
2021/10/24 03:24:14;;;;;;;12.65;6.53;;;;;;;;;;4995331;28;20038;-73
2021/10/24 03:26:40;;;;;;;11.93;6.13;;;;;;;;;;4982641;28;20487;-73
2021/10/24 03:29:08;;;;;;;11.50;5.82;;;;;;;;;;4991775;28;20026;-67
2021/10/24 03:31:34;;;;;;;13.88;6.55;;;;;;;;;;4991158;28;20381;-72
2021/10/24 03:34:03;;;;;;;11.45;5.47;;;;;;;;;;4991436;28;20400;-73
2021/10/24 03:36:30;;;;;;;13.02;6.07;;;;;;;;;;4991776;28;20030;-70
2021/10/24 03:38:58;;;;;;;9.85;6.00;;;;;;;;;;4991499;28;20041;-72
2021/10/24 03:41:24;;;;;;;11.27;5.80;;;;;;;;;;4995429;28;20042;-71
2021/10/24 03:43:50;;;;;;;12.73;6.25;;;;;;;;;;4991351;28;20094;-72
2021/10/24 03:46:16;;;;;;;10.55;5.45;;;;;;;;;;4986455;28;20081;-73
2021/10/24 03:48:42;;;;;;;13.60;5.40;;;;;;;;;;4991510;28;20061;-72
2021/10/24 03:51:08;;;;;;;14.57;5.93;;;;;;;;;;4990526;28;20243;-72
2021/10/24 03:53:35;;;;;;;13.45;5.60;;;;;;;;;;4980183;28;20026;-73
2021/10/24 03:56:01;;;;;;;14.48;6.88;;;;;;;;;;4991334;28;20102;-69
2021/10/24 03:58:27;;;;;;;14.38;7.38;;;;;;;;;;4989914;28;20030;-73
2021/10/24 04:00:53;;;;;;;17.17;7.82;;;;;;;;;;4989429;28;20120;-72
2021/10/24 04:03:19;;;;;;;12.48;6.45;;;;;;;;;;4987308;28;20031;-72
2021/10/24 04:05:49;;;;;;;11.80;5.90;;;;;;;;;;4995228;28;20109;-72
2021/10/24 04:08:16;;;;;;;14.60;5.60;;;;;;;;;;4979596;28;20040;-73
2021/10/24 04:10:42;;;;;;;11.35;5.60;;;;;;;;;;4992402;28;20468;-72
2021/10/24 04:13:09;;;;;;;13.05;6.50;;;;;;;;;;4993966;28;20112;-72
2021/10/24 04:15:35;;;;;;;10.60;6.10;;;;;;;;;;4989168;28;20033;-72
2021/10/24 04:18:01;;;;;;;11.73;6.10;;;;;;;;;;4988373;28;20035;-73
2021/10/24 04:20:28;;;;;;;12.85;5.47;;;;;;;;;;4979174;28;20057;-73
2021/10/24 04:22:54;;;;;;;11.20;5.28;;;;;;;;;;4994295;28;20023;-72
2021/10/24 04:25:20;;;;;;;12.05;5.90;;;;;;;;;;4996489;28;20022;-67
2021/10/24 04:27:47;;;;;;;10.80;5.70;;;;;;;;;;4982715;28;20122;-73
2021/10/24 04:30:13;;;;;;;15.13;6.07;;;;;;;;;;4993203;28;20510;-73
2021/10/24 04:32:41;;;;;;;14.50;6.18;;;;;;;;;;4993816;28;20475;-71
2021/10/24 04:35:07;;;;;;;14.30;6.50;;;;;;;;;;4994015;28;20480;-73
2021/10/24 04:37:35;;;;;;;17.85;6.57;;;;;;;;;;4997193;28;20022;-73
2021/10/24 04:40:02;;;;;;;10.73;6.38;;;;;;;;;;4982157;28;20070;-73
2021/10/24 04:42:28;;;;;;;14.07;6.32;;;;;;;;;;4993821;28;20030;-73
2021/10/24 04:44:55;;;;;;;13.15;6.80;;;;;;;;;;4991414;28;20030;-72
2021/10/24 04:47:21;;;;;;;13.43;7.38;;;;;;;;;;4984993;28;20114;-70
2021/10/24 04:49:49;;;;;;;14.48;7.45;;;;;;;;;;4990890;28;20038;-71
2021/10/24 04:52:16;;;;;;;15.23;7.00;;;;;;;;;;4994018;28;20117;-73
2021/10/24 04:54:42;;;;;;;14.85;6.53;;;;;;;;;;4993854;28;20072;-73
2021/10/24 04:57:08;;;;;;;11.80;6.38;;;;;;;;;;4994013;28;20038;-63
2021/10/24 04:59:34;;;;;;;11.35;6.30;;;;;;;;;;4992524;28;20042;-72
2021/10/24 05:02:00;;;;;;;12.02;6.57;;;;;;;;;;4993114;28;20026;-72
2021/10/24 05:04:26;;;;;;;18.20;7.78;;;;;;;;;;4993784;28;20045;-73
2021/10/24 05:06:52;;;;;;;16.52;8.27;;;;;;;;;;4992888;28;20032;-73
2021/10/24 05:09:19;;;;;;;19.23;9.70;;;;;;;;;;4993973;28;20038;-72
2021/10/24 05:11:45;;;;;;;18.13;7.90;;;;;;;;;;4993383;28;20483;-71
2021/10/24 05:14:11;;;;;;;15.27;7.13;;;;;;;;;;4993168;28;20082;-73
2021/10/24 05:16:40;;;;;;;18.30;8.00;;;;;;;;;;4992779;28;20388;-71
2021/10/24 05:19:06;;;;;;;16.50;8.43;;;;;;;;;;4989678;28;20123;-72
2021/10/24 05:21:32;;;;;;;19.13;9.00;;;;;;;;;;4992307;28;20110;-73
2021/10/24 05:23:58;;;;;;;16.42;8.55;;;;;;;;;;4992028;28;20074;-74
2021/10/24 05:26:25;;;;;;;17.02;8.52;;;;;;;;;;4990790;28;20053;-72
2021/10/24 05:28:51;;;;;;;15.82;8.13;;;;;;;;;;4992970;28;20054;-72
2021/10/24 05:31:17;;;;;;;15.43;8.63;;;;;;;;;;4993719;28;20077;-72
2021/10/24 05:33:45;;;;;;;12.32;7.75;;;;;;;;;;4992076;28;20042;-70
2021/10/24 05:36:11;;;;;;;15.85;7.53;;;;;;;;;;4985720;28;20084;-72
2021/10/24 05:38:37;;;;;;;15.15;7.25;;;;;;;;;;4991479;28;20033;-72
2021/10/24 05:41:03;;;;;;;20.90;7.85;;;;;;;;;;4993217;28;20112;-72
2021/10/24 05:43:32;;;;;;;18.90;8.75;;;;;;;;;;4992759;28;20589;-73
2021/10/24 05:46:05;;;;;;;24.70;12.30;;;;;;;;;;4993375;28;20150;-70
2021/10/24 05:48:31;;;;;;;19.88;10.25;;;;;;;;;;4993100;28;20073;-68
2021/10/24 05:50:59;;;;;;;15.35;9.20;;;;;;;;;;4992797;28;20026;-72
2021/10/24 05:53:40;;;;;;;20.23;9.02;;;;;;;;;;4991523;28;20101;-71
2021/10/24 05:56:06;;;;;;;18.52;11.88;;;;;;;;;;4977783;28;20110;-75
2021/10/24 05:58:34;;;;;;;16.98;9.15;;;;;;;;;;4999125;28;20042;-70
2021/10/24 06:01:00;;;;;;;15.40;9.27;;;;;;;;;;4992554;28;20476;-72
2021/10/24 06:03:29;;;;;;;16.05;8.95;;;;;;;;;;4991329;28;20088;-70
2021/10/24 06:05:55;;;;;;;18.08;8.38;;;;;;;;;;4990140;28;20109;-71
2021/10/24 06:08:22;;;;;;;18.23;8.85;;;;;;;;;;4992383;28;20026;-68
2021/10/24 06:10:49;;;;;;;20.73;8.73;;;;;;;;;;4989720;28;20027;-71
2021/10/24 06:13:15;;;;;;;26.42;13.30;;;;;;;;;;4993088;28;20456;-73
2021/10/24 06:15:42;;;;;;;35.38;18.33;;;;;;;;;;4995011;28;20045;-69
2021/10/24 06:18:09;;;;;;;56.78;27.35;;;;;;;;;;4991500;28;20484;-73
2021/10/24 06:20:36;;;;;;;42.17;20.20;;;;;;;;;;4992564;28;20038;-74
2021/10/24 06:23:02;;;;;;;23.98;11.52;;;;;;;;;;4990932;28;20529;-69
2021/10/24 06:25:28;;;;;;;20.67;11.18;;;;;;;;;;4988915;28;20540;-69
2021/10/24 06:27:54;;;;;;;24.85;14.48;;;;;;;;;;4993240;28;20037;-70
2021/10/24 06:33:22;;;;;;;15.93;7.70;;;;;;;;;;4936536;28;20809;-69
2021/10/24 06:35:48;;;;;;;18.38;7.70;;;;;;;;;;4937470;29;20062;-75
2021/10/24 06:38:17;;;;;;;17.42;9.63;;;;;;;;;;4938625;29;20048;-70
2021/10/24 06:40:44;;;;;;;16.08;8.50;;;;;;;;;;4934084;29;20052;-72
2021/10/24 06:43:10;;;;;;;15.95;7.38;;;;;;;;;;4934455;29;20392;-74
2021/10/24 06:45:36;;;;;;;14.60;7.20;;;;;;;;;;4935250;29;20039;-77
2021/10/24 06:48:16;;;;;;;16.90;8.30;;;;;;;;;;4937539;29;20040;-78
2021/10/24 06:50:42;;;;;;;12.07;7.00;;;;;;;;;;4944155;29;20031;-76
2021/10/24 06:53:10;;;;;;;18.33;8.88;;;;;;;;;;4938373;29;20024;-76
2021/10/24 06:55:42;;;;;;;21.48;7.97;;;;;;;;;;4940927;29;20022;-73
2021/10/24 06:58:08;;;;;;;13.52;6.90;;;;;;;;;;4957843;28;20174;-71
2021/10/24 07:00:34;;;;;;;12.13;7.03;;;;;;;;;;4933980;29;20079;-71
2021/10/24 07:03:00;;;;;;;13.52;6.93;;;;;;;;;;4934063;29;20042;-73
2021/10/24 07:05:26;;;;;;;15.75;8.25;;;;;;;;;;4942282;29;20031;-71
2021/10/24 07:07:52;;;;;;;12.95;7.55;;;;;;;;;;4933914;29;20028;-71
2021/10/24 07:10:21;;;;;;;14.45;7.00;;;;;;;;;;4934037;29;20019;-72
2021/10/24 07:12:53;;;;;;;13.02;7.18;;;;;;;;;;4934377;29;20028;-73
2021/10/24 07:15:21;;;;;;;12.27;6.35;;;;;;;;;;4933119;29;20485;-74
2021/10/24 07:17:47;;;;;;;14.13;7.10;;;;;;;;;;4933972;29;20030;-70
2021/10/24 07:20:13;;;;;;;12.82;6.80;;;;;;;;;;4933268;29;20063;-73
2021/10/24 07:22:40;;;;;;;12.93;6.40;;;;;;;;;;4933822;29;20027;-72
2021/10/24 07:25:06;;;;;;;13.27;6.88;;;;;;;;;;4933736;29;20024;-72
2021/10/24 07:27:32;;;;;;;13.88;6.88;;;;;;;;;;4933876;29;20047;-71
2021/10/24 07:29:58;;;;;;;11.18;6.88;;;;;;;;;;4933464;29;20034;-72
2021/10/24 07:32:24;;;;;;;18.13;7.80;;;;;;;;;;4943871;28;20059;-72
2021/10/24 07:34:50;;;;;;;11.77;7.30;;;;;;;;;;4953176;28;20028;-73
2021/10/24 07:37:17;;;;;;;15.77;7.22;;;;;;;;;;4952207;28;20070;-72
2021/10/24 07:39:43;;;;;;;13.35;7.45;;;;;;;;;;4955410;28;20584;-71
2021/10/24 07:42:12;;;;;;;14.95;7.53;;;;;;;;;;4966854;28;20050;-74
2021/10/24 07:44:41;;;;;;;25.83;10.43;;;;;;;;;;4965555;28;20027;-72
2021/10/24 07:47:10;;;;;;;16.40;7.93;;;;;;;;;;4959329;29;20046;-74
2021/10/24 07:49:36;;;;;;;15.23;7.90;;;;;;;;;;4955575;28;20031;-70
2021/10/24 07:52:03;;;;;;;14.52;8.80;;;;;;;;;;4961495;29;20122;-70
2021/10/24 07:54:29;;;;;;;28.40;15.27;;;;;;;;;;4958253;28;20469;-76
2021/10/24 07:56:55;;;;;;;26.58;11.40;;;;;;;;;;4954416;29;20039;-74
2021/10/24 07:59:21;;;;;;;14.80;6.57;;;;;;;;;;4963961;29;20098;-80
2021/10/24 08:01:47;;;;;;;13.43;5.97;;;;;;;;;;4957151;29;20086;-73
2021/10/24 08:04:13;;;;;;;12.70;6.30;;;;;;;;;;4956020;29;20047;-75
2021/10/24 08:06:39;;;;;;;14.45;7.25;;;;;;;;;;4965837;28;20072;-69
2021/10/24 08:09:07;;;;;;;11.88;6.20;;;;;;;;;;4957790;29;20031;-71
2021/10/24 08:11:34;;;;;;;13.00;6.13;;;;;;;;;;4956145;28;20110;-73
2021/10/24 08:14:01;;;;;;;13.40;6.18;;;;;;;;;;4947605;29;20059;-68
2021/10/24 08:16:27;;;;;;;14.35;6.78;;;;;;;;;;4948855;28;20036;-72
2021/10/24 08:18:53;;;;;;;18.52;6.53;;;;;;;;;;4956241;29;20429;-71
2021/10/24 08:21:20;;;;;;;12.57;6.05;;;;;;;;;;4955575;28;20101;-76
2021/10/24 08:23:46;;;;;;;37.70;13.98;;;;;;;;;;4957598;29;20361;-76
2021/10/24 08:26:12;;;;;;;18.05;6.95;;;;;;;;;;4957655;28;20059;-71
2021/10/24 08:28:39;;;;;;;17.73;7.38;;;;;;;;;;4959601;29;20058;-72
2021/10/24 08:31:05;;;;;;;18.85;7.53;;;;;;;;;;4955977;28;20031;-73
2021/10/24 08:33:31;;;;;;;13.63;6.72;;;;;;;;;;4956212;28;20149;-72
2021/10/24 08:36:01;;;;;;;12.35;6.78;;;;;;;;;;4956456;29;20469;-73
2021/10/24 08:38:28;;;;;;;19.23;7.63;;;;;;;;;;4965530;28;20073;-73
2021/10/24 08:40:54;;;;;;;11.27;6.18;;;;;;;;;;4957327;28;20035;-69
2021/10/24 08:43:27;;;;;;;15.27;6.40;;;;;;;;;;4956537;29;20026;-73
2021/10/24 08:45:55;;;;;;;12.15;6.65;;;;;;;;;;4948091;28;20437;-73
2021/10/24 08:48:22;;;;;;;15.93;7.30;;;;;;;;;;4956127;29;20054;-70
2021/10/24 08:50:50;;;;;;;17.70;8.10;;;;;;;;;;4956291;29;20032;-74
2021/10/24 08:53:24;;;;;;;11.45;6.70;;;;;;;;;;4955216;28;20054;-72
2021/10/24 08:55:50;;;;;;;;;;;;;;;;;;4956593;29;20049;-74
2021/10/24 08:58:17;;;;;;;18.40;7.15;;;;;;;;;;4954670;28;20356;-70
2021/10/24 09:00:43;;;;;;;12.98;6.93;;;;;;;;;;4955569;29;20393;-72
2021/10/24 09:03:09;;;;;;;13.65;7.22;;;;;;;;;;4952904;29;20066;-74
2021/10/24 09:05:43;;;;;;;15.63;7.60;;;;;;;;;;4955699;28;20071;-73
2021/10/24 09:08:10;;;;;;;18.10;7.78;;;;;;;;;;4955236;28;20027;-74
2021/10/24 09:10:37;;;;;;;15.70;7.47;;;;;;;;;;4955691;29;20030;-73
2021/10/24 09:13:04;;;;;;;15.05;7.90;;;;;;;;;;4966565;28;20031;-67
2021/10/24 09:15:42;;;;;;;17.40;8.50;;;;;;;;;;4947715;29;20019;-71
2021/10/24 09:18:08;;;;;;;15.10;7.72;;;;;;;;;;4953389;28;20394;-71
2021/10/24 09:20:34;;;;;;;19.88;9.30;;;;;;;;;;4951921;28;20063;-69
2021/10/24 09:23:08;;;;;;;23.25;11.70;;;;;;;;;;4955548;29;20031;-73
2021/10/24 09:25:34;;;;;;;59.28;33.38;;;;;;;;;;4955546;29;20035;-71
2021/10/24 09:28:00;;;;;;;62.85;45.88;;;;;;;;;;4955181;29;20496;-69
2021/10/24 09:30:28;;;;;;;32.03;15.80;;;;;;;;;;4954739;28;20075;-71
2021/10/24 09:33:00;;;;;;;25.65;12.10;;;;;;;;;;4954130;28;20055;-73
2021/10/24 09:35:28;;;;;;;17.98;9.23;;;;;;;;;;4954612;28;20516;-70
2021/10/24 09:37:56;;;;;;;18.63;9.43;;;;;;;;;;4959314;28;20027;-72
2021/10/24 09:40:42;;;;;;;33.63;20.33;;;;;;;;;;4955761;28;20037;-72
2021/10/24 09:43:14;;;;;;;18.60;10.18;;;;;;;;;;4953421;29;20031;-73
2021/10/24 09:45:43;;;;;;;18.25;8.82;;;;;;;;;;4953597;29;20023;-68
2021/10/24 09:48:10;;;;;;;15.00;8.43;;;;;;;;;;4954414;29;20074;-68
2021/10/24 09:50:41;;;;;;;14.35;8.32;;;;;;;;;;4953627;29;20500;-71
2021/10/24 09:53:11;;;;;;;17.05;9.02;;;;;;;;;;4954552;29;20063;-74
2021/10/24 09:55:38;;;;;;;83.32;49.38;;;;;;;;;;4954433;28;20027;-69
2021/10/24 09:58:05;;;;;;;16.60;9.43;;;;;;;;;;4953307;28;20397;-70
2021/10/24 10:00:31;;;;;;;14.15;7.28;;;;;;;;;;4953368;28;20113;-71
2021/10/24 10:02:59;;;;;;;15.70;7.80;;;;;;;;;;4952769;28;20098;-71
2021/10/24 10:05:25;;;;;;;17.40;8.00;;;;;;;;;;4951713;28;20042;-70
2021/10/24 10:07:52;;;;;;;17.23;8.32;;;;;;;;;;4954333;28;20023;-72
2021/10/24 10:10:18;;;;;;;23.23;8.63;;;;;;;;;;4954096;28;20031;-67
2021/10/24 10:12:48;;;;;;;16.55;7.70;;;;;;;;;;4954037;29;20091;-70
2021/10/24 10:15:14;;;;;;;53.22;28.70;;;;;;;;;;4959106;28;20031;-69
2021/10/24 10:17:40;;;;;;;18.90;11.00;;;;;;;;;;4953815;28;20068;-69
2021/10/24 10:20:27;;;;;;;12.25;7.63;;;;;;;;;;4952853;28;20114;-66
2021/10/24 10:23:19;;;;;;;12.75;7.38;;;;;;;;;;4952422;28;20019;-71
2021/10/24 10:25:45;;;;;;;17.13;7.60;;;;;;;;;;4945239;28;20043;-72
2021/10/24 10:28:15;;;;;;;15.13;8.55;;;;;;;;;;4954029;29;20174;-67
2021/10/24 10:30:43;;;;;;;14.90;7.85;;;;;;;;;;4952873;28;20031;-69
2021/10/24 10:33:27;;;;;;;15.13;7.18;;;;;;;;;;4953247;29;20051;-71
2021/10/24 10:35:54;;;;;;;20.75;7.55;;;;;;;;;;4953951;29;20592;-73
2021/10/24 10:38:30;;;;;;;12.23;7.03;;;;;;;;;;4954077;28;20497;-71
2021/10/24 10:40:57;;;;;;;12.98;7.05;;;;;;;;;;4952708;29;20117;-72
2021/10/24 10:43:23;;;;;;;14.32;7.07;;;;;;;;;;4953256;29;20026;-71
2021/10/24 10:45:55;;;;;;;11.52;6.80;;;;;;;;;;4953958;28;20106;-67
2021/10/24 10:48:38;;;;;;;13.00;6.78;;;;;;;;;;4953653;28;20039;-70
2021/10/24 10:51:25;;;;;;;13.10;6.60;;;;;;;;;;4948855;29;20028;-72
2021/10/24 10:53:51;;;;;;;10.70;6.20;;;;;;;;;;4946055;29;20373;-68
2021/10/24 10:56:20;;;;;;;14.00;7.28;;;;;;;;;;4953575;28;20066;-67
2021/10/24 10:58:49;;;;;;;12.43;5.80;;;;;;;;;;4953564;29;20622;-71
2021/10/24 11:01:21;;;;;;;9.80;5.43;;;;;;;;;;4953678;29;20043;-71
2021/10/24 11:03:49;;;;;;;8.93;4.80;;;;;;;;;;4953405;29;20038;-67
2021/10/24 11:06:25;;;;;;;10.20;5.13;;;;;;;;;;4953569;28;20035;-70
2021/10/24 11:08:51;;;;;;;10.93;5.28;;;;;;;;;;4952898;29;20037;-69
2021/10/24 11:11:37;;;;;;;9.32;4.47;;;;;;;;;;4953972;28;20066;-69
2021/10/24 11:14:31;;;;;;;12.30;4.93;;;;;;;;;;4958378;28;20087;-72
2021/10/24 11:17:33;;;;;;;10.38;4.57;;;;;;;;;;4900305;29;20049;-76
2021/10/24 11:20:21;;;;;;;10.45;4.60;;;;;;;;;;4902427;29;20033;-71
2021/10/24 11:22:52;;;;;;;9.43;4.78;;;;;;;;;;4896594;29;20052;-77
2021/10/24 11:25:44;;;;;;;11.70;4.57;;;;;;;;;;4897373;29;20036;-71
2021/10/24 11:28:18;;;;;;;13.95;4.47;;;;;;;;;;4904235;29;20048;-78
2021/10/24 11:30:45;;;;;;;10.30;5.00;;;;;;;;;;4909454;29;20044;-77
2021/10/24 11:33:12;;;;;;;10.18;5.05;;;;;;;;;;4893492;29;20055;-76
2021/10/24 11:35:39;;;;;;;10.95;5.43;;;;;;;;;;4909115;29;20040;-75
2021/10/24 11:38:35;;;;;;;7.13;4.80;;;;;;;;;;4911304;29;20029;-71
2021/10/24 11:41:01;;;;;;;11.13;4.82;;;;;;;;;;4870343;29;20045;-70
2021/10/24 11:43:29;;;;;;;9.20;4.47;;;;;;;;;;4860774;29;20507;-76
2021/10/24 11:46:01;;;;;;;9.00;4.90;;;;;;;;;;4860295;29;20050;-70
2021/10/24 11:48:28;;;;;;;10.63;4.78;;;;;;;;;;4862801;29;20037;-77
2021/10/24 11:50:57;;;;;;;10.57;4.95;;;;;;;;;;4863852;29;20042;-75
2021/10/24 11:53:27;;;;;;;8.98;5.00;;;;;;;;;;4880166;29;20032;-74
2021/10/24 11:55:54;;;;;;;11.18;4.65;;;;;;;;;;4907631;29;20040;-74
2021/10/24 12:01:27;;;;;;;8.90;4.07;;;;;;;;;;4894453;29;20227;-75
2021/10/24 12:03:59;;;;;;;9.45;4.35;;;;;;;;;;4905386;29;20069;-75
2021/10/24 12:06:44;;;;;;;14.50;5.32;;;;;;;;;;4899357;29;20033;-70
2021/10/24 12:09:13;;;;;;;10.73;5.57;;;;;;;;;;4900342;29;20027;-76
2021/10/24 12:11:43;;;;;;;12.30;5.47;;;;;;;;;;4907599;29;20041;-71
2021/10/24 12:14:12;;;;;;;10.48;5.80;;;;;;;;;;4903808;29;20072;-77
2021/10/24 12:16:40;;;;;;;11.00;4.95;;;;;;;;;;4904811;29;20091;-67
2021/10/24 12:19:11;;;;;;;12.10;5.65;;;;;;;;;;4956642;28;20035;-67
2021/10/24 12:21:37;;;;;;;8.93;5.28;;;;;;;;;;4952580;28;20096;-75
2021/10/24 12:24:20;;;;;;;11.18;5.47;;;;;;;;;;4955481;28;20038;-73
2021/10/24 12:26:46;;;;;;;14.57;5.32;;;;;;;;;;4953025;28;20049;-74
2021/10/24 12:29:16;;;;;;;11.07;5.47;;;;;;;;;;4955013;29;20511;-75
2021/10/24 12:31:42;;;;;;;11.50;4.57;;;;;;;;;;4953948;29;20038;-71
2021/10/24 12:34:15;;;;;;;11.15;4.40;;;;;;;;;;4955646;28;20039;-74
2021/10/24 12:36:42;;;;;;;9.00;4.18;;;;;;;;;;4955530;29;20481;-73
2021/10/24 12:39:20;;;;;;;8.60;4.40;;;;;;;;;;4960460;28;20110;-76
2021/10/24 12:41:47;;;;;;;9.23;3.85;;;;;;;;;;4948394;29;20039;-74
2021/10/24 12:44:14;;;;;;;7.47;4.00;;;;;;;;;;4954153;29;20103;-73
2021/10/24 12:46:42;;;;;;;11.48;4.13;;;;;;;;;;4954853;29;20065;-71
2021/10/24 12:49:10;;;;;;;8.80;4.10;;;;;;;;;;4968647;28;20035;-71
2021/10/24 12:51:36;;;;;;;7.60;3.78;;;;;;;;;;4958818;29;20030;-77
2021/10/24 12:54:06;;;;;;;5.85;3.30;;;;;;;;;;4955728;29;20357;-74
2021/10/24 12:56:35;;;;;;;10.40;3.80;;;;;;;;;;4952007;29;20357;-76
2021/10/24 12:59:01;;;;;;;8.43;3.30;;;;;;;;;;4949536;28;20556;-74
2021/10/24 13:01:27;;;;;;;12.88;3.85;;;;;;;;;;4955214;29;20396;-67
2021/10/24 13:03:54;;;;;;;8.82;4.18;;;;;;;;;;4954065;29;20031;-69
2021/10/24 13:06:21;;;;;;;9.25;3.92;;;;;;;;;;4962086;28;20046;-78
2021/10/24 13:08:47;;;;;;;8.68;3.83;;;;;;;;;;4961152;29;20027;-74
2021/10/24 13:11:13;;;;;;;8.40;5.10;;;;;;;;;;4962057;28;20024;-76
2021/10/24 13:13:40;;;;;;;6.50;3.20;;;;;;;;;;4963289;29;20057;-71
2021/10/24 13:16:06;;;;;;;7.63;3.70;;;;;;;;;;4962481;29;20046;-78
2021/10/24 13:18:35;;;;;;;8.32;3.90;;;;;;;;;;4958660;28;20027;-77
2021/10/24 13:21:04;;;;;;;10.98;4.18;;;;;;;;;;4958719;29;20063;-78
2021/10/24 13:23:30;;;;;;;7.72;3.72;;;;;;;;;;4961970;28;20023;-78
2021/10/24 13:25:57;;;;;;;8.02;4.70;;;;;;;;;;4960986;29;20023;-78
2021/10/24 13:28:23;;;;;;;9.10;5.40;;;;;;;;;;4956411;28;20063;-67
2021/10/24 13:30:49;;;;;;;7.53;3.83;;;;;;;;;;4956092;29;20023;-70
2021/10/24 13:33:16;;;;;;;5.95;3.42;;;;;;;;;;4956652;29;20130;-71
2021/10/24 13:35:42;;;;;;;9.63;3.42;;;;;;;;;;4956155;28;20031;-67
2021/10/24 13:38:09;;;;;;;9.65;4.38;;;;;;;;;;4956771;29;20031;-66
2021/10/24 13:40:35;;;;;;;8.07;3.75;;;;;;;;;;4956215;28;20395;-67
2021/10/24 13:43:02;;;;;;;8.02;3.78;;;;;;;;;;4956263;28;20374;-66
2021/10/24 13:45:28;;;;;;;10.43;3.50;;;;;;;;;;4955514;29;20429;-74
2021/10/24 13:47:56;;;;;;;6.30;3.30;;;;;;;;;;4953761;28;20031;-76
2021/10/24 13:50:22;;;;;;;7.75;3.15;;;;;;;;;;4956591;29;20032;-70
2021/10/24 13:52:48;;;;;;;8.00;3.22;;;;;;;;;;4955987;29;20098;-65
2021/10/24 13:55:15;;;;;;;6.53;2.90;;;;;;;;;;4955119;28;20031;-67
2021/10/24 13:57:41;;;;;;;5.63;3.00;;;;;;;;;;4954222;28;20046;-69
2021/10/24 14:00:08;;;;;;;7.93;3.70;;;;;;;;;;4958886;28;20028;-76
2021/10/24 14:02:35;;;;;;;10.32;4.47;;;;;;;;;;4955584;29;20038;-72
2021/10/24 14:05:02;;;;;;;5.75;3.10;;;;;;;;;;4955953;28;20034;-68
2021/10/24 14:07:29;;;;;;;7.03;3.08;;;;;;;;;;4956071;28;20086;-67
2021/10/24 14:09:55;;;;;;;9.00;3.08;;;;;;;;;;4955922;28;20381;-66
2021/10/24 14:12:21;;;;;;;6.78;3.25;;;;;;;;;;4957905;29;20460;-70
2021/10/24 14:14:54;;;;;;;7.57;3.58;;;;;;;;;;4956632;28;20054;-69
2021/10/24 14:17:20;;;;;;;10.63;5.70;;;;;;;;;;4957545;29;20023;-68
2021/10/24 14:19:46;;;;;;;14.98;8.35;;;;;;;;;;4957287;29;20031;-69
2021/10/24 14:22:12;;;;;;;6.28;3.33;;;;;;;;;;4955997;28;20079;-71
2021/10/24 14:24:38;;;;;;;7.78;3.47;;;;;;;;;;4956045;28;20034;-68
2021/10/24 14:27:04;;;;;;;7.07;3.60;;;;;;;;;;4959652;28;20039;-68
2021/10/24 14:29:37;;;;;;;5.78;3.22;;;;;;;;;;4960333;29;20084;-68
2021/10/24 14:32:03;;;;;;;8.32;3.33;;;;;;;;;;4952207;28;20398;-66
2021/10/24 14:34:29;;;;;;;10.38;3.60;;;;;;;;;;4956949;29;20055;-70
2021/10/24 14:36:55;;;;;;;6.50;3.60;;;;;;;;;;4955980;29;20091;-68
2021/10/24 14:39:22;;;;;;;6.82;3.75;;;;;;;;;;4956575;28;20023;-73
2021/10/24 14:41:48;;;;;;;6.97;3.58;;;;;;;;;;4957023;28;20039;-68